Haldimand, Canada
Current Conditions -  °F | °C
As of 10:00 AM on Friday 31 Oct 2014 (Local Time) from CYHM Reporting Station
Rain Showers Rain Showers  
Wind Chill: 36°   Ceiling: 2000
Heat Index: 41°   Visibility: 7mi
Dew Point: 39°   Wind: 7mph
Humidity: 93%   Direction: 60°ENE
Pressure: 29.93"   Gusts: NA
Location:  42.99°N, 79.83°W
Report Text: CYHM 311400Z 06006KT 7SM -SHRA BKN020 OVC035 05/04 A2993 RMK SC5SC3 SLP143
Loading
Personal Weather Stations






























Interactive Weather Map
Tropical Storm Tracking
New forecast layout! Learn more

10-Day Weather Forecast

Advertisements
Track Severe Weather on mobile